首页
METAR-TAF:

METAR-TAF

机场 :

阿巴丹, 伊朗

纬度: 30-22N, 经度: 048-15E, 海拔: 3米

当前天气观测

该预报发布于1小时和2分钟前的08:00 UTC
风速23节,风向西北
温度 45°C
湿度 12%
气压 995 hPa
能見度: 4000
浮尘

METAR: OIAA 160800Z 32023KT 4000 DU NSC 45/09 Q0995

时间: 13:32 (09:02 UTC)

预报

该预报发布于2小时和42分钟前的06:20 UTC
预报有效从16日的 06点(UTC)到 17日的 12点(UTC)
风速14节,风向西转西北
能見度: 8000
短暂存在
从 16日的 06点(UTC)到 16日的 16点(UTC)
风速20节,风向西转西北,有时为30节阵风
能見度: 3000
几率 40%
从 16日的 10点(UTC)到 16日的 14点(UTC)
能見度: 1500
扬沙
短暂存在
从 17日的 09点(UTC)到 17日的 15点(UTC)
风速16节,风向西转西北,有时为26节阵风

TAF: OIAA 160620Z 1606/1712 29014KT 8000 NSC TEMPO 1606/1616 30020G30KT 3000 SA/DU PROB40 1610/1614 1500 SA TEMPO 1709/1715 29016G26KT

超过4000个机场的气象观测和天气预报(METAR&TAF报告)。

可查询的气象台以黄色和红色小点在地图上表示。

将鼠标移到小点上方,可查看气象台名称。

然后点击查看天气观测和预报。

如需切换地图:点击带黑十字的绿色按钮放大地图;点击带横线的绿色按钮缩小地图;或者点击绿色箭头查看邻近地区的地图。


METAR-TAF: